LEAS/OVD METAR and TAF weather

Enter ICAO airport designator
Station Type Date Time Source
LEAS METAR 2024/07/13 03:00 UTC NOAA

LEAS 130300Z AUTO 13003KT 090V170 9999 OVC042 15/12 Q1016


Station Type Date Time Source
LEAS Decoded METAR 2024/07/13 03:00 UTC NOAA

Asturias / Aviles, Spain (LEAS) 43-33N 006-02W 130M
Jul 12, 2024 - 11:00 PM EDT / 2024.07.13 0300 UTC
Wind: from the SE (130 degrees) at 3 MPH (3 KT) (direction variable):0
Visibility: greater than 7 mile(s):0
Sky conditions: overcast
Temperature: 59 F (15 C)
Dew Point: 53 F (12 C)
Relative Humidity: 82%
Pressure (altimeter): 30.00 in. Hg (1016 hPa)
ob: LEAS 130300Z AUTO 13003KT 090V170 9999 OVC042 15/12 Q1016
cycle: 3

Station Type Date Time Source
LEAS TAF 2024/07/13 03:29 UTC NOAA